Lees Creek, Louisiana
Current Conditions -  °F | °C
As of 5:53 AM on Thursday 18 Dec 2014 (Local Time) from KASD Reporting Station
Clear Clear  
Wind Chill: 43°   Ceiling: Unl
Heat Index: 43°   Visibility: 10mi
Dew Point: 40°   Wind: 0mph
Humidity: 89%   Direction: NA
Pressure: 30.16"   Gusts: NA
Location:  30.7419°N, 89.8828°W
Report Text: KASD 181153Z AUTO 00000KT 10SM CLR 06/04 A3016 RMK AO2 SLP214 T00610044 10072 20056 56004
Loading
Personal Weather Stations






























Interactive Weather Map New forecast layout! Learn more

10-Day Weather Forecast

Advertisements
Track Severe Weather on mobile